sensor_id;sensor_type;location;lat;lon;timestamp;temperature;humidity
10678;DHT22;5387;48.722;9.110;2023-05-13T00:00:09;10.70;99.90
10678;DHT22;5387;48.722;9.110;2023-05-13T00:02:36;10.70;99.90
10678;DHT22;5387;48.722;9.110;2023-05-13T00:05:03;10.70;99.90
10678;DHT22;5387;48.722;9.110;2023-05-13T00:07:31;10.60;99.90
10678;DHT22;5387;48.722;9.110;2023-05-13T00:09:57;10.70;99.90
10678;DHT22;5387;48.722;9.110;2023-05-13T00:12:24;10.60;99.90
10678;DHT22;5387;48.722;9.110;2023-05-13T00:14:51;10.60;99.90
10678;DHT22;5387;48.722;9.110;2023-05-13T00:17:19;10.70;99.90
10678;DHT22;5387;48.722;9.110;2023-05-13T00:19:46;10.60;99.90
10678;DHT22;5387;48.722;9.110;2023-05-13T00:22:13;10.60;99.90
10678;DHT22;5387;48.722;9.110;2023-05-13T00:24:39;10.60;99.90
10678;DHT22;5387;48.722;9.110;2023-05-13T00:27:06;10.60;99.90
10678;DHT22;5387;48.722;9.110;2023-05-13T00:29:33;10.60;99.90
10678;DHT22;5387;48.722;9.110;2023-05-13T00:32:00;10.50;99.90
10678;DHT22;5387;48.722;9.110;2023-05-13T00:34:28;10.50;99.90
10678;DHT22;5387;48.722;9.110;2023-05-13T00:36:55;10.50;99.90
10678;DHT22;5387;48.722;9.110;2023-05-13T00:39:22;10.40;99.90
10678;DHT22;5387;48.722;9.110;2023-05-13T00:41:49;10.40;99.90
10678;DHT22;5387;48.722;9.110;2023-05-13T00:44:15;10.40;99.90
10678;DHT22;5387;48.722;9.110;2023-05-13T00:46:43;10.40;99.90
10678;DHT22;5387;48.722;9.110;2023-05-13T00:49:09;10.40;99.90
10678;DHT22;5387;48.722;9.110;2023-05-13T00:51:38;10.40;99.90
10678;DHT22;5387;48.722;9.110;2023-05-13T00:54:05;10.40;99.90
10678;DHT22;5387;48.722;9.110;2023-05-13T00:56:31;10.30;99.90
10678;DHT22;5387;48.722;9.110;2023-05-13T00:58:58;10.40;99.90
10678;DHT22;5387;48.722;9.110;2023-05-13T01:01:32;10.40;99.90
10678;DHT22;5387;48.722;9.110;2023-05-13T01:04:07;10.30;99.90
10678;DHT22;5387;48.722;9.110;2023-05-13T01:06:42;10.30;99.90
10678;DHT22;5387;48.722;9.110;2023-05-13T01:09:17;10.30;99.90
10678;DHT22;5387;48.722;9.110;2023-05-13T01:11:49;10.30;99.90
10678;DHT22;5387;48.722;9.110;2023-05-13T01:14:22;10.30;99.90
10678;DHT22;5387;48.722;9.110;2023-05-13T01:16:54;10.30;99.90
10678;DHT22;5387;48.722;9.110;2023-05-13T01:19:34;10.40;99.90
10678;DHT22;5387;48.722;9.110;2023-05-13T01:22:05;10.30;99.90
10678;DHT22;5387;48.722;9.110;2023-05-13T01:24:32;10.20;99.90
10678;DHT22;5387;48.722;9.110;2023-05-13T01:26:59;10.30;99.90
10678;DHT22;5387;48.722;9.110;2023-05-13T01:29:26;10.20;99.90
10678;DHT22;5387;48.722;9.110;2023-05-13T01:31:54;10.20;99.90
10678;DHT22;5387;48.722;9.110;2023-05-13T01:34:22;10.20;99.90
10678;DHT22;5387;48.722;9.110;2023-05-13T01:36:50;10.20;99.90
10678;DHT22;5387;48.722;9.110;2023-05-13T01:39:19;10.20;99.90
10678;DHT22;5387;48.722;9.110;2023-05-13T01:41:45;10.20;99.90
10678;DHT22;5387;48.722;9.110;2023-05-13T01:44:12;10.20;99.90
10678;DHT22;5387;48.722;9.110;2023-05-13T01:46:41;10.20;99.90
10678;DHT22;5387;48.722;9.110;2023-05-13T01:49:08;10.10;99.90
10678;DHT22;5387;48.722;9.110;2023-05-13T01:51:35;9.90;99.90
10678;DHT22;5387;48.722;9.110;2023-05-13T01:54:02;9.90;99.90
10678;DHT22;5387;48.722;9.110;2023-05-13T01:56:30;9.90;99.90
10678;DHT22;5387;48.722;9.110;2023-05-13T01:58:57;9.90;99.90
10678;DHT22;5387;48.722;9.110;2023-05-13T02:01:24;9.90;99.90
10678;DHT22;5387;48.722;9.110;2023-05-13T02:03:51;9.90;99.90
10678;DHT22;5387;48.722;9.110;2023-05-13T02:06:18;9.90;99.90
10678;DHT22;5387;48.722;9.110;2023-05-13T02:08:44;9.80;99.90
10678;DHT22;5387;48.722;9.110;2023-05-13T02:11:11;9.70;99.90
10678;DHT22;5387;48.722;9.110;2023-05-13T02:13:39;9.70;99.90
10678;DHT22;5387;48.722;9.110;2023-05-13T02:16:06;9.70;99.90
10678;DHT22;5387;48.722;9.110;2023-05-13T02:18:33;9.70;99.90
10678;DHT22;5387;48.722;9.110;2023-05-13T02:21:00;9.80;99.90
10678;DHT22;5387;48.722;9.110;2023-05-13T02:23:26;9.80;99.90
10678;DHT22;5387;48.722;9.110;2023-05-13T02:25:53;9.90;99.90
10678;DHT22;5387;48.722;9.110;2023-05-13T02:28:21;9.90;99.90
10678;DHT22;5387;48.722;9.110;2023-05-13T02:30:49;10.00;99.90
10678;DHT22;5387;48.722;9.110;2023-05-13T02:33:16;10.00;99.90
10678;DHT22;5387;48.722;9.110;2023-05-13T02:35:43;9.90;99.90
10678;DHT22;5387;48.722;9.110;2023-05-13T02:38:10;10.00;99.90
10678;DHT22;5387;48.722;9.110;2023-05-13T02:40:37;10.10;99.90
10678;DHT22;5387;48.722;9.110;2023-05-13T02:43:04;10.00;99.90
10678;DHT22;5387;48.722;9.110;2023-05-13T02:45:32;9.80;99.90
10678;DHT22;5387;48.722;9.110;2023-05-13T02:48:00;9.70;99.90
10678;DHT22;5387;48.722;9.110;2023-05-13T02:50:27;9.60;99.90
10678;DHT22;5387;48.722;9.110;2023-05-13T02:52:53;9.60;99.90
10678;DHT22;5387;48.722;9.110;2023-05-13T02:55:20;9.50;99.90
10678;DHT22;5387;48.722;9.110;2023-05-13T02:57:47;9.50;99.90
10678;DHT22;5387;48.722;9.110;2023-05-13T03:00:14;9.50;99.90
10678;DHT22;5387;48.722;9.110;2023-05-13T03:02:41;9.50;99.90
10678;DHT22;5387;48.722;9.110;2023-05-13T03:05:09;9.40;99.90
10678;DHT22;5387;48.722;9.110;2023-05-13T03:07:36;9.50;99.90
10678;DHT22;5387;48.722;9.110;2023-05-13T03:10:04;9.50;99.90
10678;DHT22;5387;48.722;9.110;2023-05-13T03:12:31;9.50;99.90
10678;DHT22;5387;48.722;9.110;2023-05-13T03:14:58;9.60;99.90
10678;DHT22;5387;48.722;9.110;2023-05-13T03:17:25;9.60;99.90
10678;DHT22;5387;48.722;9.110;2023-05-13T03:19:55;9.70;99.90
10678;DHT22;5387;48.722;9.110;2023-05-13T03:22:23;9.70;99.90
10678;DHT22;5387;48.722;9.110;2023-05-13T03:24:50;9.60;99.90
10678;DHT22;5387;48.722;9.110;2023-05-13T03:27:18;9.70;99.90
10678;DHT22;5387;48.722;9.110;2023-05-13T03:29:45;9.60;99.90
10678;DHT22;5387;48.722;9.110;2023-05-13T03:32:12;9.60;99.90
10678;DHT22;5387;48.722;9.110;2023-05-13T03:34:39;9.70;99.90
10678;DHT22;5387;48.722;9.110;2023-05-13T03:37:05;9.80;99.90
10678;DHT22;5387;48.722;9.110;2023-05-13T03:39:34;9.70;99.90
10678;DHT22;5387;48.722;9.110;2023-05-13T03:42:01;9.50;99.90
10678;DHT22;5387;48.722;9.110;2023-05-13T03:44:28;9.60;99.90
10678;DHT22;5387;48.722;9.110;2023-05-13T03:46:55;9.40;99.90
10678;DHT22;5387;48.722;9.110;2023-05-13T03:49:21;9.30;99.90
10678;DHT22;5387;48.722;9.110;2023-05-13T03:51:48;9.30;99.90
10678;DHT22;5387;48.722;9.110;2023-05-13T03:54:15;9.30;99.90
10678;DHT22;5387;48.722;9.110;2023-05-13T03:56:43;9.40;99.90
10678;DHT22;5387;48.722;9.110;2023-05-13T03:59:10;9.30;99.90
10678;DHT22;5387;48.722;9.110;2023-05-13T04:01:37;9.30;99.90
10678;DHT22;5387;48.722;9.110;2023-05-13T04:04:04;9.20;99.90
10678;DHT22;5387;48.722;9.110;2023-05-13T04:06:30;9.30;99.90
10678;DHT22;5387;48.722;9.110;2023-05-13T04:08:57;9.40;99.90
10678;DHT22;5387;48.722;9.110;2023-05-13T04:11:24;9.40;99.90
10678;DHT22;5387;48.722;9.110;2023-05-13T04:13:52;9.40;99.90
10678;DHT22;5387;48.722;9.110;2023-05-13T04:16:19;9.50;99.90
10678;DHT22;5387;48.722;9.110;2023-05-13T04:18:47;9.60;99.90
10678;DHT22;5387;48.722;9.110;2023-05-13T04:21:13;9.50;99.90
10678;DHT22;5387;48.722;9.110;2023-05-13T04:23:40;9.50;99.90
10678;DHT22;5387;48.722;9.110;2023-05-13T04:26:07;9.50;99.90
10678;DHT22;5387;48.722;9.110;2023-05-13T04:28:34;9.60;99.90
10678;DHT22;5387;48.722;9.110;2023-05-13T04:31:02;9.70;99.90
10678;DHT22;5387;48.722;9.110;2023-05-13T04:33:29;9.60;99.90
10678;DHT22;5387;48.722;9.110;2023-05-13T04:35:56;9.50;99.90
10678;DHT22;5387;48.722;9.110;2023-05-13T04:38:22;9.60;99.90
10678;DHT22;5387;48.722;9.110;2023-05-13T04:40:49;9.60;99.90
10678;DHT22;5387;48.722;9.110;2023-05-13T04:43:17;9.60;99.90
10678;DHT22;5387;48.722;9.110;2023-05-13T04:45:46;9.50;99.90
10678;DHT22;5387;48.722;9.110;2023-05-13T04:48:14;9.50;99.90
10678;DHT22;5387;48.722;9.110;2023-05-13T04:50:44;9.50;99.90
10678;DHT22;5387;48.722;9.110;2023-05-13T04:53:10;9.50;99.90
10678;DHT22;5387;48.722;9.110;2023-05-13T04:55:37;9.50;99.90
10678;DHT22;5387;48.722;9.110;2023-05-13T04:58:04;9.50;99.90
10678;DHT22;5387;48.722;9.110;2023-05-13T05:00:31;9.50;99.90
10678;DHT22;5387;48.722;9.110;2023-05-13T05:02:58;9.40;99.90
10678;DHT22;5387;48.722;9.110;2023-05-13T05:05:26;9.40;99.90
10678;DHT22;5387;48.722;9.110;2023-05-13T05:07:53;9.50;99.90
10678;DHT22;5387;48.722;9.110;2023-05-13T05:10:20;9.70;99.90
10678;DHT22;5387;48.722;9.110;2023-05-13T05:12:47;9.90;99.90
10678;DHT22;5387;48.722;9.110;2023-05-13T05:15:14;9.90;99.90
10678;DHT22;5387;48.722;9.110;2023-05-13T05:17:41;9.90;99.90
10678;DHT22;5387;48.722;9.110;2023-05-13T05:20:08;10.00;99.90
10678;DHT22;5387;48.722;9.110;2023-05-13T05:22:37;9.90;99.90
10678;DHT22;5387;48.722;9.110;2023-05-13T05:25:07;9.90;99.90
10678;DHT22;5387;48.722;9.110;2023-05-13T05:27:33;9.90;99.90
10678;DHT22;5387;48.722;9.110;2023-05-13T05:30:00;10.00;99.90
10678;DHT22;5387;48.722;9.110;2023-05-13T05:32:27;10.10;99.90
10678;DHT22;5387;48.722;9.110;2023-05-13T05:34:54;10.00;99.90
10678;DHT22;5387;48.722;9.110;2023-05-13T05:37:21;9.70;99.90
10678;DHT22;5387;48.722;9.110;2023-05-13T05:39:49;9.70;99.90
10678;DHT22;5387;48.722;9.110;2023-05-13T05:42:16;9.90;99.90
10678;DHT22;5387;48.722;9.110;2023-05-13T05:44:42;9.80;99.90
10678;DHT22;5387;48.722;9.110;2023-05-13T05:47:09;9.90;99.90
10678;DHT22;5387;48.722;9.110;2023-05-13T05:49:36;10.00;99.90
10678;DHT22;5387;48.722;9.110;2023-05-13T05:52:03;10.20;99.90
10678;DHT22;5387;48.722;9.110;2023-05-13T05:54:30;10.50;99.90
10678;DHT22;5387;48.722;9.110;2023-05-13T05:56:58;10.60;99.90
10678;DHT22;5387;48.722;9.110;2023-05-13T05:59:25;10.60;99.90
10678;DHT22;5387;48.722;9.110;2023-05-13T06:01:52;10.30;99.90
10678;DHT22;5387;48.722;9.110;2023-05-13T06:04:19;10.30;99.90
10678;DHT22;5387;48.722;9.110;2023-05-13T06:06:45;10.20;99.90
10678;DHT22;5387;48.722;9.110;2023-05-13T06:09:12;10.10;99.90
10678;DHT22;5387;48.722;9.110;2023-05-13T06:11:39;10.00;99.90
10678;DHT22;5387;48.722;9.110;2023-05-13T06:14:07;10.00;99.90
10678;DHT22;5387;48.722;9.110;2023-05-13T06:16:34;10.20;99.90
10678;DHT22;5387;48.722;9.110;2023-05-13T06:19:00;10.30;99.90
10678;DHT22;5387;48.722;9.110;2023-05-13T06:21:27;10.30;99.90
10678;DHT22;5387;48.722;9.110;2023-05-13T06:23:56;10.10;99.90
10678;DHT22;5387;48.722;9.110;2023-05-13T06:26:23;10.20;99.90
10678;DHT22;5387;48.722;9.110;2023-05-13T06:28:50;10.30;99.90
10678;DHT22;5387;48.722;9.110;2023-05-13T06:31:18;10.20;99.90
10678;DHT22;5387;48.722;9.110;2023-05-13T06:33:45;9.90;99.90
10678;DHT22;5387;48.722;9.110;2023-05-13T06:36:12;10.00;99.90
10678;DHT22;5387;48.722;9.110;2023-05-13T06:38:39;9.90;99.90
10678;DHT22;5387;48.722;9.110;2023-05-13T06:41:05;9.80;99.90
10678;DHT22;5387;48.722;9.110;2023-05-13T06:43:32;9.90;99.90
10678;DHT22;5387;48.722;9.110;2023-05-13T06:45:59;10.00;99.90
10678;DHT22;5387;48.722;9.110;2023-05-13T06:48:27;10.10;99.90
10678;DHT22;5387;48.722;9.110;2023-05-13T06:50:54;10.30;99.90
10678;DHT22;5387;48.722;9.110;2023-05-13T06:53:21;10.30;99.90
10678;DHT22;5387;48.722;9.110;2023-05-13T06:55:47;10.30;99.90
10678;DHT22;5387;48.722;9.110;2023-05-13T06:58:14;10.60;99.90
10678;DHT22;5387;48.722;9.110;2023-05-13T07:00:42;10.70;99.90
10678;DHT22;5387;48.722;9.110;2023-05-13T07:03:11;11.10;99.90
10678;DHT22;5387;48.722;9.110;2023-05-13T07:05:39;11.20;99.90
10678;DHT22;5387;48.722;9.110;2023-05-13T07:08:05;11.40;99.90
10678;DHT22;5387;48.722;9.110;2023-05-13T07:10:33;11.40;99.90
10678;DHT22;5387;48.722;9.110;2023-05-13T07:13:00;11.40;99.90
10678;DHT22;5387;48.722;9.110;2023-05-13T07:15:27;11.40;99.90
10678;DHT22;5387;48.722;9.110;2023-05-13T07:17:54;11.40;99.90
10678;DHT22;5387;48.722;9.110;2023-05-13T07:20:21;11.50;99.90
10678;DHT22;5387;48.722;9.110;2023-05-13T07:22:50;11.50;99.90
10678;DHT22;5387;48.722;9.110;2023-05-13T07:25:17;11.40;99.90
10678;DHT22;5387;48.722;9.110;2023-05-13T07:27:44;11.70;99.90
10678;DHT22;5387;48.722;9.110;2023-05-13T07:30:12;12.00;99.90
10678;DHT22;5387;48.722;9.110;2023-05-13T07:32:39;12.00;99.90
10678;DHT22;5387;48.722;9.110;2023-05-13T07:35:07;12.00;99.90
10678;DHT22;5387;48.722;9.110;2023-05-13T07:37:34;11.70;99.90
10678;DHT22;5387;48.722;9.110;2023-05-13T07:40:04;11.60;99.90
10678;DHT22;5387;48.722;9.110;2023-05-13T07:42:32;11.70;99.90
10678;DHT22;5387;48.722;9.110;2023-05-13T07:44:59;12.00;99.90
10678;DHT22;5387;48.722;9.110;2023-05-13T07:47:26;12.30;99.90
10678;DHT22;5387;48.722;9.110;2023-05-13T07:49:53;12.20;99.90
10678;DHT22;5387;48.722;9.110;2023-05-13T07:52:20;12.00;99.90
10678;DHT22;5387;48.722;9.110;2023-05-13T07:54:47;12.20;99.90
10678;DHT22;5387;48.722;9.110;2023-05-13T07:57:15;11.90;99.90
10678;DHT22;5387;48.722;9.110;2023-05-13T07:59:43;11.80;99.90
10678;DHT22;5387;48.722;9.110;2023-05-13T08:02:10;11.80;99.90
10678;DHT22;5387;48.722;9.110;2023-05-13T08:04:37;11.60;99.90
10678;DHT22;5387;48.722;9.110;2023-05-13T08:07:04;12.00;99.90
10678;DHT22;5387;48.722;9.110;2023-05-13T08:09:30;12.00;99.90
10678;DHT22;5387;48.722;9.110;2023-05-13T08:11:57;11.90;99.90
10678;DHT22;5387;48.722;9.110;2023-05-13T08:14:25;12.10;99.90
10678;DHT22;5387;48.722;9.110;2023-05-13T08:16:52;11.80;99.90
10678;DHT22;5387;48.722;9.110;2023-05-13T08:19:19;11.90;99.90
10678;DHT22;5387;48.722;9.110;2023-05-13T08:21:46;12.10;99.90
10678;DHT22;5387;48.722;9.110;2023-05-13T08:24:13;12.00;99.90
10678;DHT22;5387;48.722;9.110;2023-05-13T08:26:40;12.20;99.90
10678;DHT22;5387;48.722;9.110;2023-05-13T08:29:07;12.20;99.90
10678;DHT22;5387;48.722;9.110;2023-05-13T08:31:38;12.10;99.90
10678;DHT22;5387;48.722;9.110;2023-05-13T08:34:05;12.00;99.90
10678;DHT22;5387;48.722;9.110;2023-05-13T08:36:32;12.20;99.90
10678;DHT22;5387;48.722;9.110;2023-05-13T08:38:59;12.00;99.90
10678;DHT22;5387;48.722;9.110;2023-05-13T08:41:26;12.00;99.90
10678;DHT22;5387;48.722;9.110;2023-05-13T08:43:56;12.10;99.90
10678;DHT22;5387;48.722;9.110;2023-05-13T08:46:26;12.00;99.90
10678;DHT22;5387;48.722;9.110;2023-05-13T08:48:55;11.70;99.90
10678;DHT22;5387;48.722;9.110;2023-05-13T08:51:22;11.40;99.90
10678;DHT22;5387;48.722;9.110;2023-05-13T08:53:50;11.40;99.90
10678;DHT22;5387;48.722;9.110;2023-05-13T08:56:17;11.50;99.90
10678;DHT22;5387;48.722;9.110;2023-05-13T08:58:44;11.30;99.90
10678;DHT22;5387;48.722;9.110;2023-05-13T09:01:11;11.30;99.90
10678;DHT22;5387;48.722;9.110;2023-05-13T09:03:45;11.40;99.90
10678;DHT22;5387;48.722;9.110;2023-05-13T09:06:17;11.40;99.90
10678;DHT22;5387;48.722;9.110;2023-05-13T09:08:44;11.50;99.90
10678;DHT22;5387;48.722;9.110;2023-05-13T09:11:11;11.50;99.90
10678;DHT22;5387;48.722;9.110;2023-05-13T09:13:38;11.60;99.90
10678;DHT22;5387;48.722;9.110;2023-05-13T09:16:05;11.80;99.90
10678;DHT22;5387;48.722;9.110;2023-05-13T09:18:31;12.00;99.90
10678;DHT22;5387;48.722;9.110;2023-05-13T09:21:22;12.00;99.90
10678;DHT22;5387;48.722;9.110;2023-05-13T09:23:55;12.00;99.90
10678;DHT22;5387;48.722;9.110;2023-05-13T09:26:27;12.00;99.90
10678;DHT22;5387;48.722;9.110;2023-05-13T09:29:16;12.10;99.90
10678;DHT22;5387;48.722;9.110;2023-05-13T09:31:43;12.10;99.90
10678;DHT22;5387;48.722;9.110;2023-05-13T09:34:10;12.20;99.90
10678;DHT22;5387;48.722;9.110;2023-05-13T09:36:39;12.10;99.90
10678;DHT22;5387;48.722;9.110;2023-05-13T09:39:07;11.90;99.90
10678;DHT22;5387;48.722;9.110;2023-05-13T09:41:34;11.90;99.90
10678;DHT22;5387;48.722;9.110;2023-05-13T09:44:02;11.80;99.90
10678;DHT22;5387;48.722;9.110;2023-05-13T09:46:30;12.00;99.90
10678;DHT22;5387;48.722;9.110;2023-05-13T09:48:57;12.20;99.90
10678;DHT22;5387;48.722;9.110;2023-05-13T09:51:25;12.40;99.90
10678;DHT22;5387;48.722;9.110;2023-05-13T09:53:54;12.50;99.90
10678;DHT22;5387;48.722;9.110;2023-05-13T09:56:21;12.50;99.90
10678;DHT22;5387;48.722;9.110;2023-05-13T09:58:52;13.00;99.90
10678;DHT22;5387;48.722;9.110;2023-05-13T10:01:19;13.50;99.90
10678;DHT22;5387;48.722;9.110;2023-05-13T10:03:47;13.30;99.90
10678;DHT22;5387;48.722;9.110;2023-05-13T10:06:15;12.90;99.90
10678;DHT22;5387;48.722;9.110;2023-05-13T10:08:44;13.30;99.90
10678;DHT22;5387;48.722;9.110;2023-05-13T10:11:14;13.40;99.90
10678;DHT22;5387;48.722;9.110;2023-05-13T10:13:42;13.10;99.90
10678;DHT22;5387;48.722;9.110;2023-05-13T10:16:13;13.20;99.90
10678;DHT22;5387;48.722;9.110;2023-05-13T10:18:40;13.50;99.90
10678;DHT22;5387;48.722;9.110;2023-05-13T10:21:07;13.70;99.90
10678;DHT22;5387;48.722;9.110;2023-05-13T10:23:34;14.20;99.90
10678;DHT22;5387;48.722;9.110;2023-05-13T10:26:01;14.90;99.90
10678;DHT22;5387;48.722;9.110;2023-05-13T10:28:30;15.00;99.90
10678;DHT22;5387;48.722;9.110;2023-05-13T10:30:57;15.40;99.90
10678;DHT22;5387;48.722;9.110;2023-05-13T10:33:25;15.40;99.90
10678;DHT22;5387;48.722;9.110;2023-05-13T10:36:02;14.90;99.90
10678;DHT22;5387;48.722;9.110;2023-05-13T10:38:46;14.30;99.90
10678;DHT22;5387;48.722;9.110;2023-05-13T10:41:29;14.10;99.90
10678;DHT22;5387;48.722;9.110;2023-05-13T10:44:02;13.80;99.90
10678;DHT22;5387;48.722;9.110;2023-05-13T10:46:29;14.20;99.90
10678;DHT22;5387;48.722;9.110;2023-05-13T10:48:59;14.30;99.90
10678;DHT22;5387;48.722;9.110;2023-05-13T10:51:26;14.80;99.90
10678;DHT22;5387;48.722;9.110;2023-05-13T10:53:54;15.20;99.90
10678;DHT22;5387;48.722;9.110;2023-05-13T10:56:26;14.60;99.90
10678;DHT22;5387;48.722;9.110;2023-05-13T10:58:57;14.80;99.90
10678;DHT22;5387;48.722;9.110;2023-05-13T11:01:27;15.10;99.90
10678;DHT22;5387;48.722;9.110;2023-05-13T11:03:56;15.30;99.90
10678;DHT22;5387;48.722;9.110;2023-05-13T11:06:27;15.70;99.90
10678;DHT22;5387;48.722;9.110;2023-05-13T11:08:54;15.20;99.90
10678;DHT22;5387;48.722;9.110;2023-05-13T11:11:32;15.00;99.90
10678;DHT22;5387;48.722;9.110;2023-05-13T11:14:06;14.80;99.90
10678;DHT22;5387;48.722;9.110;2023-05-13T11:16:35;14.20;99.90
10678;DHT22;5387;48.722;9.110;2023-05-13T11:19:02;13.80;99.90
10678;DHT22;5387;48.722;9.110;2023-05-13T11:21:31;13.60;99.90
10678;DHT22;5387;48.722;9.110;2023-05-13T11:24:01;13.40;99.90
10678;DHT22;5387;48.722;9.110;2023-05-13T11:26:48;13.40;99.90
10678;DHT22;5387;48.722;9.110;2023-05-13T11:29:26;13.60;99.90
10678;DHT22;5387;48.722;9.110;2023-05-13T11:31:58;13.60;99.90
10678;DHT22;5387;48.722;9.110;2023-05-13T11:34:25;13.70;99.90
10678;DHT22;5387;48.722;9.110;2023-05-13T11:36:55;13.40;99.90
10678;DHT22;5387;48.722;9.110;2023-05-13T11:39:23;13.50;99.90
10678;DHT22;5387;48.722;9.110;2023-05-13T11:41:52;13.00;99.90
10678;DHT22;5387;48.722;9.110;2023-05-13T11:44:22;13.00;99.90
10678;DHT22;5387;48.722;9.110;2023-05-13T11:46:53;12.90;99.90
10678;DHT22;5387;48.722;9.110;2023-05-13T11:49:32;12.70;99.90
10678;DHT22;5387;48.722;9.110;2023-05-13T11:52:00;12.80;99.90
10678;DHT22;5387;48.722;9.110;2023-05-13T11:54:27;12.70;99.90
10678;DHT22;5387;48.722;9.110;2023-05-13T11:56:54;12.60;99.90
10678;DHT22;5387;48.722;9.110;2023-05-13T11:59:20;12.90;99.90
10678;DHT22;5387;48.722;9.110;2023-05-13T12:01:57;12.80;99.90
10678;DHT22;5387;48.722;9.110;2023-05-13T12:04:27;12.80;99.90
10678;DHT22;5387;48.722;9.110;2023-05-13T12:06:55;12.80;99.90
10678;DHT22;5387;48.722;9.110;2023-05-13T12:09:22;12.80;99.90
10678;DHT22;5387;48.722;9.110;2023-05-13T12:11:49;13.10;99.90
10678;DHT22;5387;48.722;9.110;2023-05-13T12:14:17;13.50;99.90
10678;DHT22;5387;48.722;9.110;2023-05-13T12:16:44;13.60;99.90
10678;DHT22;5387;48.722;9.110;2023-05-13T12:19:11;13.60;99.90
10678;DHT22;5387;48.722;9.110;2023-05-13T12:21:38;13.50;99.90
10678;DHT22;5387;48.722;9.110;2023-05-13T12:24:17;13.40;99.90
10678;DHT22;5387;48.722;9.110;2023-05-13T12:26:44;13.40;99.90
10678;DHT22;5387;48.722;9.110;2023-05-13T12:29:11;13.10;99.90
10678;DHT22;5387;48.722;9.110;2023-05-13T12:31:41;13.00;99.90
10678;DHT22;5387;48.722;9.110;2023-05-13T12:34:08;13.20;99.90
10678;DHT22;5387;48.722;9.110;2023-05-13T12:36:36;13.40;99.90
10678;DHT22;5387;48.722;9.110;2023-05-13T12:39:04;13.80;99.90
10678;DHT22;5387;48.722;9.110;2023-05-13T12:41:33;14.00;99.90
10678;DHT22;5387;48.722;9.110;2023-05-13T12:44:02;13.90;99.90
10678;DHT22;5387;48.722;9.110;2023-05-13T12:46:29;14.00;99.90
10678;DHT22;5387;48.722;9.110;2023-05-13T12:48:58;13.60;99.90
10678;DHT22;5387;48.722;9.110;2023-05-13T12:51:26;13.90;99.90
10678;DHT22;5387;48.722;9.110;2023-05-13T12:53:54;14.20;99.90
10678;DHT22;5387;48.722;9.110;2023-05-13T12:56:21;14.10;99.90
10678;DHT22;5387;48.722;9.110;2023-05-13T12:58:52;14.50;99.90
10678;DHT22;5387;48.722;9.110;2023-05-13T13:01:19;14.90;99.90
10678;DHT22;5387;48.722;9.110;2023-05-13T13:03:46;14.80;99.90
10678;DHT22;5387;48.722;9.110;2023-05-13T13:06:14;14.90;99.90
10678;DHT22;5387;48.722;9.110;2023-05-13T13:08:41;14.70;99.90
10678;DHT22;5387;48.722;9.110;2023-05-13T13:11:07;14.30;99.90
10678;DHT22;5387;48.722;9.110;2023-05-13T13:13:34;14.60;99.90
10678;DHT22;5387;48.722;9.110;2023-05-13T13:16:03;14.70;99.90
10678;DHT22;5387;48.722;9.110;2023-05-13T13:18:30;14.70;99.90
10678;DHT22;5387;48.722;9.110;2023-05-13T13:20:57;14.90;99.90
10678;DHT22;5387;48.722;9.110;2023-05-13T13:23:24;15.10;99.90
10678;DHT22;5387;48.722;9.110;2023-05-13T13:25:51;15.60;99.90
10678;DHT22;5387;48.722;9.110;2023-05-13T13:28:17;15.80;99.90
10678;DHT22;5387;48.722;9.110;2023-05-13T13:30:44;16.30;99.90
10678;DHT22;5387;48.722;9.110;2023-05-13T13:33:14;16.70;99.90
10678;DHT22;5387;48.722;9.110;2023-05-13T13:35:42;17.00;99.90
10678;DHT22;5387;48.722;9.110;2023-05-13T13:38:09;16.90;99.90
10678;DHT22;5387;48.722;9.110;2023-05-13T13:40:36;16.60;99.90
10678;DHT22;5387;48.722;9.110;2023-05-13T13:43:03;15.70;99.90
10678;DHT22;5387;48.722;9.110;2023-05-13T13:45:30;15.00;99.90
10678;DHT22;5387;48.722;9.110;2023-05-13T13:47:57;14.90;99.90
10678;DHT22;5387;48.722;9.110;2023-05-13T13:50:25;14.70;99.90
10678;DHT22;5387;48.722;9.110;2023-05-13T13:52:52;14.80;99.90
10678;DHT22;5387;48.722;9.110;2023-05-13T13:55:19;14.70;99.90
10678;DHT22;5387;48.722;9.110;2023-05-13T13:57:46;15.00;99.90
10678;DHT22;5387;48.722;9.110;2023-05-13T14:00:14;15.10;99.90
10678;DHT22;5387;48.722;9.110;2023-05-13T14:02:41;15.40;99.90
10678;DHT22;5387;48.722;9.110;2023-05-13T14:05:09;15.40;99.90
10678;DHT22;5387;48.722;9.110;2023-05-13T14:07:37;15.40;99.90
10678;DHT22;5387;48.722;9.110;2023-05-13T14:10:05;15.10;99.90
10678;DHT22;5387;48.722;9.110;2023-05-13T14:12:32;15.10;99.90
10678;DHT22;5387;48.722;9.110;2023-05-13T14:15:00;15.00;99.90
10678;DHT22;5387;48.722;9.110;2023-05-13T14:17:27;14.80;99.90
10678;DHT22;5387;48.722;9.110;2023-05-13T14:19:53;14.60;99.90
10678;DHT22;5387;48.722;9.110;2023-05-13T14:22:20;14.40;99.90
10678;DHT22;5387;48.722;9.110;2023-05-13T14:24:50;14.60;99.90
10678;DHT22;5387;48.722;9.110;2023-05-13T14:27:17;14.60;99.90
10678;DHT22;5387;48.722;9.110;2023-05-13T14:29:45;14.70;99.90
10678;DHT22;5387;48.722;9.110;2023-05-13T14:32:12;15.00;99.90
10678;DHT22;5387;48.722;9.110;2023-05-13T14:34:39;15.30;99.90
10678;DHT22;5387;48.722;9.110;2023-05-13T14:37:06;15.70;99.90
10678;DHT22;5387;48.722;9.110;2023-05-13T14:39:32;15.60;99.90
10678;DHT22;5387;48.722;9.110;2023-05-13T14:42:01;15.50;99.90
10678;DHT22;5387;48.722;9.110;2023-05-13T14:44:28;15.30;99.90
10678;DHT22;5387;48.722;9.110;2023-05-13T14:46:55;15.40;99.90
10678;DHT22;5387;48.722;9.110;2023-05-13T14:49:21;15.70;99.90
10678;DHT22;5387;48.722;9.110;2023-05-13T14:51:48;15.90;99.90
10678;DHT22;5387;48.722;9.110;2023-05-13T14:54:15;16.10;99.90
10678;DHT22;5387;48.722;9.110;2023-05-13T14:56:42;16.20;99.90
10678;DHT22;5387;48.722;9.110;2023-05-13T14:59:10;16.40;99.90
10678;DHT22;5387;48.722;9.110;2023-05-13T15:01:37;16.20;99.90
10678;DHT22;5387;48.722;9.110;2023-05-13T15:04:04;16.60;99.90
10678;DHT22;5387;48.722;9.110;2023-05-13T15:06:31;16.70;99.90
10678;DHT22;5387;48.722;9.110;2023-05-13T15:08:58;17.00;99.90
10678;DHT22;5387;48.722;9.110;2023-05-13T15:11:25;17.20;99.90
10678;DHT22;5387;48.722;9.110;2023-05-13T15:13:52;17.40;99.90
10678;DHT22;5387;48.722;9.110;2023-05-13T15:16:21;17.40;99.90
10678;DHT22;5387;48.722;9.110;2023-05-13T15:18:47;16.90;99.90
10678;DHT22;5387;48.722;9.110;2023-05-13T15:21:15;16.90;99.90
10678;DHT22;5387;48.722;9.110;2023-05-13T15:23:42;16.80;99.90
10678;DHT22;5387;48.722;9.110;2023-05-13T15:26:09;16.80;99.90
10678;DHT22;5387;48.722;9.110;2023-05-13T15:28:35;16.60;99.90
10678;DHT22;5387;48.722;9.110;2023-05-13T15:31:03;16.50;99.90
10678;DHT22;5387;48.722;9.110;2023-05-13T15:33:31;16.40;99.90
10678;DHT22;5387;48.722;9.110;2023-05-13T15:35:58;16.20;99.90
10678;DHT22;5387;48.722;9.110;2023-05-13T15:38:25;16.10;99.90
10678;DHT22;5387;48.722;9.110;2023-05-13T15:40:53;16.30;99.90
10678;DHT22;5387;48.722;9.110;2023-05-13T15:43:20;16.20;99.90
10678;DHT22;5387;48.722;9.110;2023-05-13T15:45:47;16.40;99.90
10678;DHT22;5387;48.722;9.110;2023-05-13T15:48:15;16.80;99.90
10678;DHT22;5387;48.722;9.110;2023-05-13T15:50:44;16.70;99.90
10678;DHT22;5387;48.722;9.110;2023-05-13T15:53:10;16.90;99.90